Pineville, MO

5:52 PM CDT on August 22, 2014 (GMT -0500)
Rogers Municipal-Carter | Change Station
CLOSE
Current Station
Airport
Location: Rogers,
Elevation: 1358 ft
Nearby Weather Stations
Active Advisory: Heat Advisory

Elev 1358 ft 36.37 °N, 94.11 °W | Updated 55 minutes ago

Clear
Clear
94 °F
Feels Like 99 °F
N
13
Wind Variable Wind from SSW
Gusts 20 mph

Today
High -- | Low -- °F
--% Chance of Precip.
Yesterday
High -- | Low -- °F
Precip. -- in
6:40 AM 7:59 PM
Waning Crescent, 6% visible
Pressure 29.95 in
Visibility 10.0 miles
Clouds Clear
Heat Index 99 °F
Dew Point 68 °F
Humidity 43%
Rainfall 0.00 in
Snow Depth Not available.
UV 4 out of 12
Pollen 10.70 out of 12
Air Quality Not available.
Flu Activity Not available.
METAR KROG 222157Z 21011G17KT 10SM CLR 34/20 A3000 RMK AO2 SLP140 T03440200

More Conditions Fewer Conditions

Pressure 29.95 in
Visibility 10.0 miles
Clouds Clear
Heat Index 99 °F
Dew Point 68 °F
Humidity 43%
Rainfall 0.00 in
Snow Depth Not available.
UV 4 out of 12
Pollen 10.70 out of 12
Air Quality Not available.
Flu Activity Not available.
METAR KROG 222157Z 21011G17KT 10SM CLR 34/20 A3000 RMK AO2 SLP140 T03440200

More Conditions Fewer Conditions

10-Day Weather Forecast

Almanac

Astronomy

Aug. 22, 2014 Rise Set
Actual Time 6:40 AM CDT 7:59 PM CDT
Civil Twilight 6:13 AM CDT 8:26 PM CDT
Nautical Twilight 5:41 AM CDT 8:58 PM CDT
Astronomical Twilight 5:07 AM CDT 9:32 PM CDT
Moon 4:06 AM CDT 6:06 PM CDT
Length of Visible Light 14h 12m
Length of Day
13h 18m
Tomorrow will be 2m 8s shorter.
Waning Crescent, 6% of the Moon is Illuminated
Today
Waning Crescent
Aug 25
New
Sep 2
First Quarter
Sep 8
Full
Sep 15
Last Quarter

Today's Extremes

State Highs State Lows

Community

WunderPhotos

Upload Photos

1,746,278 photos uploaded!

WunderBlogs® & News

By Dr. Jeff Masters
Director of Meteorology, Weather Underground
By Kari Strenfel
Meteorologist, Weather Underground
By Christopher C. Burt
Weather Historian, Weather Underground
August 22, 2014
August 22, 2014
August 22, 2014

Nearby

Snow Depth

Station Depth Elevation
No new snow has been reported.

Earthquake Activity

City Distance Mag. Time & Date
No recent earthquake activity has been reported nearby.
Minimum magnitude displayed is 2.5.

Coastal Water Temperatures

Place Temperature
No Stations Reporting

Nearby Weather Stations